Time;durP1;ratioP1;P1;durP2;ratioP2;P2;SDS_P1;SDS_P2;PMS_P1;PMS_P2;Temp;Humidity;BMP_temperature;BMP_pressure;BME280_temperature;BME280_humidity;BME280_pressure;Samples;Min_cycle;Max_cycle;Signal;HPM_P1;HPM_P2
2022/10/02 00:00:15;;;;;;;;;;;;;;;10.98;88.06;100709.16;4917405;29;19930;-74
2022/10/02 00:03:24;;;;;;;;;;;;;;;10.95;87.98;100714.53;4916702;29;19926;-75
2022/10/02 00:06:32;;;;;;;;;;;;;;;11.07;87.31;100718.28;4915844;29;20018;-74
2022/10/02 00:09:41;;;;;;;;;;;;;;;11.07;87.39;100726.13;4915851;29;19926;-74
2022/10/02 00:12:46;;;;;;;;;;;;;;;11.06;86.91;100735.75;4916674;29;19963;-75
2022/10/02 00:15:51;;;;;;;;;;;;;;;11.09;86.75;100721.66;4917036;29;19921;-75
2022/10/02 00:18:55;;;;;;;;;;;;;;;11.00;86.96;100727.38;4916716;29;19921;-75
2022/10/02 00:22:13;;;;;;;;;;;;;;;11.05;87.18;100722.75;4916960;29;19921;-74
2022/10/02 00:25:17;;;;;;;;;;;;;;;11.01;87.32;100729.03;4916536;29;19922;-74
2022/10/02 00:28:29;;;;;;;;;;;;;;;11.02;87.23;100747.31;4916312;29;19941;-75
2022/10/02 00:31:33;;;;;;;;;;;;;;;11.11;87.34;100743.38;4916164;29;19926;-75
2022/10/02 00:34:36;;;;;;;;;;;;;;;11.07;87.48;100736.59;4917696;29;19921;-75
2022/10/02 00:38:12;;;;;;;;;;;;;;;11.10;87.36;100728.59;4897352;29;19926;-75
2022/10/02 00:41:23;;;;;;;;;;;;;;;11.06;87.20;100742.75;4881210;29;19926;-75
2022/10/02 00:44:30;;;;;;;;;;;;;;;10.93;87.85;100756.44;4898373;29;20007;-75
2022/10/02 00:47:53;;;;;;;;;;;;;;;11.02;87.88;100738.63;4898236;29;19949;-75
2022/10/02 00:51:15;;;;;;;;;;;;;;;11.21;86.99;100720.19;4897529;29;19921;-74
2022/10/02 00:54:37;;;;;;;;;;;;;;;11.14;87.21;100709.19;4897663;29;20044;-75
2022/10/02 00:58:00;;;;;;;;;;;;;;;11.11;87.44;100717.22;4897494;29;20291;-74
2022/10/02 01:01:33;;;;;;;;;;;;;;;11.03;88.02;100719.38;4896833;29;19973;-74
2022/10/02 01:04:38;;;;;;;;;;;;;;;11.15;87.93;100729.22;4895761;29;19934;-74
2022/10/02 01:07:43;;;;;;;;;;;;;;;11.13;87.79;100731.03;4896890;29;20036;-75
2022/10/02 01:10:47;;;;;;;;;;;;;;;11.14;88.05;100741.44;4897492;29;20249;-75
2022/10/02 01:13:51;;;;;;;;;;;;;;;11.25;87.44;100740.06;4896909;29;19987;-75
2022/10/02 01:16:55;;;;;;;;;;;;;;;11.25;87.37;100742.66;4897103;29;19928;-75
2022/10/02 01:31:49;;;;;;;;;;;;;;;11.12;88.44;100756.38;4901966;29;19922;-74
2022/10/02 01:34:53;;;;;;;;;;;;;;;11.24;88.50;100754.06;4897373;29;19971;-75
2022/10/02 01:37:57;;;;;;;;;;;;;;;11.29;88.10;100746.81;4915190;29;19933;-75
2022/10/02 01:41:00;;;;;;;;;;;;;;;11.25;88.12;100756.59;4915465;29;20490;-75
2022/10/02 01:44:03;;;;;;;;;;;;;;;11.35;87.94;100755.19;4915008;29;19926;-74
2022/10/02 01:47:09;;;;;;;;;;;;;;;11.29;88.36;100750.25;4915694;29;19921;-74
2022/10/02 01:50:27;;;;;;;;;;;;;;;11.25;88.92;100753.97;4915596;29;20014;-75
2022/10/02 01:53:48;;;;;;;;;;;;;;;11.39;88.38;100759.38;4915876;29;20335;-75
2022/10/02 01:57:11;;;;;;;;;;;;;;;11.45;88.37;100762.56;4915359;29;20283;-75
2022/10/02 02:00:19;;;;;;;;;;;;;;;11.41;88.70;100749.63;4915351;29;19922;-75
2022/10/02 02:03:41;;;;;;;;;;;;;;;11.41;88.87;100762.72;4915706;29;19922;-74
2022/10/02 02:06:55;;;;;;;;;;;;;;;11.47;88.75;100758.09;4916420;29;19922;-75
2022/10/02 02:09:58;;;;;;;;;;;;;;;11.49;89.04;100757.09;4915163;29;20334;-75
2022/10/02 02:13:07;;;;;;;;;;;;;;;11.52;89.00;100750.84;4919034;29;19970;-75
2022/10/02 02:16:36;;;;;;;;;;;;;;;11.50;89.08;100745.69;4919202;29;19926;-75
2022/10/02 02:19:46;;;;;;;;;;;;;;;11.50;89.53;100747.47;4919106;29;19922;-75
2022/10/02 02:22:51;;;;;;;;;;;;;;;11.51;89.65;100750.00;4918788;29;19922;-74
2022/10/02 02:25:58;;;;;;;;;;;;;;;11.58;89.39;100755.75;4918908;29;20050;-74
2022/10/02 02:29:04;;;;;;;;;;;;;;;11.53;89.53;100760.41;4919015;29;20422;-75
2022/10/02 02:32:12;;;;;;;;;;;;;;;11.51;89.69;100755.22;4918739;29;20327;-75
2022/10/02 02:35:36;;;;;;;;;;;;;;;11.57;89.56;100761.94;4918584;29;19922;-75
2022/10/02 02:38:43;;;;;;;;;;;;;;;11.50;89.74;100752.72;4918126;29;19973;-74
2022/10/02 02:41:48;;;;;;;;;;;;;;;11.44;90.59;100758.28;4918334;29;19921;-75
2022/10/02 02:44:55;;;;;;;;;;;;;;;11.44;90.44;100764.34;4917765;29;19930;-75
2022/10/02 02:48:02;;;;;;;;;;;;;;;11.45;90.36;100766.03;4918344;29;19929;-74
2022/10/02 02:51:08;;;;;;;;;;;;;;;11.51;90.68;100770.94;4918265;29;19922;-74
2022/10/02 02:54:18;;;;;;;;;;;;;;;11.51;90.77;100762.25;4918319;29;20017;-74
2022/10/02 02:57:24;;;;;;;;;;;;;;;11.52;90.53;100758.69;4918306;29;19938;-74
2022/10/02 03:00:27;;;;;;;;;;;;;;;11.49;90.48;100741.41;4918468;29;19922;-75
2022/10/02 03:03:31;;;;;;;;;;;;;;;11.49;90.58;100730.09;4918446;29;19973;-75
2022/10/02 03:06:36;;;;;;;;;;;;;;;11.51;90.74;100728.22;4918425;29;19921;-75
2022/10/02 03:09:39;;;;;;;;;;;;;;;11.57;90.26;100733.13;4918299;29;19942;-75
2022/10/02 03:12:57;;;;;;;;;;;;;;;11.41;91.00;100730.47;4918462;29;20025;-75
2022/10/02 03:16:10;;;;;;;;;;;;;;;11.49;90.78;100730.94;4918451;29;19970;-75
2022/10/02 03:19:32;;;;;;;;;;;;;;;11.47;90.86;100727.53;4918562;29;19978;-75
2022/10/02 03:22:51;;;;;;;;;;;;;;;11.48;90.78;100736.22;4918764;29;19922;-74
2022/10/02 03:25:59;;;;;;;;;;;;;;;11.48;90.93;100738.84;4917878;29;19922;-75
2022/10/02 03:29:07;;;;;;;;;;;;;;;11.53;90.74;100753.41;4917933;29;19977;-75
2022/10/02 03:32:12;;;;;;;;;;;;;;;11.52;91.09;100746.47;4917050;29;19922;-74
2022/10/02 03:35:17;;;;;;;;;;;;;;;11.46;91.05;100754.66;4917984;29;19986;-74
2022/10/02 03:38:22;;;;;;;;;;;;;;;11.41;91.37;100749.63;4916479;29;19926;-75
2022/10/02 03:41:26;;;;;;;;;;;;;;;11.41;91.75;100744.41;4917323;29;20283;-74
2022/10/02 03:44:29;;;;;;;;;;;;;;;11.39;92.13;100746.28;4917264;29;19942;-75
2022/10/02 03:47:33;;;;;;;;;;;;;;;11.30;92.24;100748.53;4915995;29;19955;-75
2022/10/02 03:50:36;;;;;;;;;;;;;;;11.38;92.27;100749.78;4916931;29;19922;-75
2022/10/02 03:53:40;;;;;;;;;;;;;;;11.47;92.16;100739.78;4917364;29;20009;-74
2022/10/02 03:56:50;;;;;;;;;;;;;;;11.53;91.80;100742.06;4917597;29;20013;-74
2022/10/02 04:00:06;;;;;;;;;;;;;;;11.55;91.87;100745.44;4917540;29;20386;-75
2022/10/02 04:03:14;;;;;;;;;;;;;;;11.49;91.98;100746.63;4917345;29;19955;-74
2022/10/02 04:06:17;;;;;;;;;;;;;;;11.51;92.21;100750.00;4917541;29;19922;-74
2022/10/02 04:09:24;;;;;;;;;;;;;;;11.38;93.02;100743.72;4916300;29;20395;-75
2022/10/02 04:12:33;;;;;;;;;;;;;;;11.48;93.20;100737.06;4917211;29;19921;-75
2022/10/02 04:15:50;;;;;;;;;;;;;;;11.60;92.74;100738.19;4917099;29;20397;-75
2022/10/02 04:19:07;;;;;;;;;;;;;;;11.56;92.84;100741.91;4916935;29;19922;-74
2022/10/02 04:22:31;;;;;;;;;;;;;;;11.63;92.55;100746.75;4917355;29;20115;-74
2022/10/02 04:25:38;;;;;;;;;;;;;;;11.70;92.96;100736.78;4915266;29;19970;-74
2022/10/02 04:28:45;;;;;;;;;;;;;;;11.62;93.63;100736.34;4916981;29;19926;-75
2022/10/02 04:31:51;;;;;;;;;;;;;;;11.52;94.36;100736.00;4916591;29;19922;-75
2022/10/02 04:34:56;;;;;;;;;;;;;;;11.61;93.61;100740.75;4916619;29;19971;-75
2022/10/02 04:38:18;;;;;;;;;;;;;;;11.70;93.29;100754.28;4916495;29;19926;-75
2022/10/02 04:41:31;;;;;;;;;;;;;;;11.71;93.16;100741.09;4916777;29;20339;-75
2022/10/02 04:44:51;;;;;;;;;;;;;;;11.76;92.99;100739.06;4915115;29;19923;-75
2022/10/02 04:47:55;;;;;;;;;;;;;;;11.81;92.79;100731.81;4903806;29;19958;-75
2022/10/02 04:51:02;;;;;;;;;;;;;;;11.74;92.88;100743.56;4916166;29;19922;-75
2022/10/02 04:54:19;;;;;;;;;;;;;;;11.76;92.76;100739.06;4913463;29;19926;-75
2022/10/02 04:57:31;;;;;;;;;;;;;;;11.78;93.30;100737.22;4911996;29;20377;-75
2022/10/02 05:00:49;;;;;;;;;;;;;;;11.69;94.08;100740.34;4912014;29;19966;-75
2022/10/02 05:04:04;;;;;;;;;;;;;;;11.78;94.05;100742.47;4912052;29;19921;-75
2022/10/02 05:07:08;;;;;;;;;;;;;;;11.77;94.02;100738.16;4913448;29;19966;-75
2022/10/02 05:10:17;;;;;;;;;;;;;;;11.75;93.64;100742.63;4908386;29;19937;-75
2022/10/02 05:13:24;;;;;;;;;;;;;;;11.75;93.90;100742.63;4911968;29;19987;-75
2022/10/02 05:16:27;;;;;;;;;;;;;;;11.78;94.18;100742.47;4896199;29;20327;-75
2022/10/02 05:19:49;;;;;;;;;;;;;;;11.77;94.51;100745.16;4892969;29;19922;-75
2022/10/02 05:22:55;;;;;;;;;;;;;;;11.89;93.75;100754.16;4893751;29;19926;-75
2022/10/02 05:25:58;;;;;;;;;;;;;;;11.81;94.65;100752.78;4896562;29;20213;-74
2022/10/02 05:29:02;;;;;;;;;;;;;;;11.86;94.57;100753.38;4910422;29;20029;-74
2022/10/02 05:32:15;;;;;;;;;;;;;;;11.85;94.53;100741.22;4911447;29;19942;-75
2022/10/02 05:35:38;;;;;;;;;;;;;;;11.91;94.72;100754.94;4911541;29;19926;-75
2022/10/02 05:38:53;;;;;;;;;;;;;;;11.95;94.43;100769.56;4892781;29;20266;-75
2022/10/02 05:42:15;;;;;;;;;;;;;;;11.83;94.99;100769.25;4895527;29;20400;-75
2022/10/02 05:45:26;;;;;;;;;;;;;;;11.80;97.12;100771.19;4875793;29;19947;-75
2022/10/02 05:48:36;;;;;;;;;;;;;;;11.92;96.19;100774.97;4877580;29;20622;-75
2022/10/02 05:51:49;;;;;;;;;;;;;;;11.94;96.11;100765.25;4888120;29;19927;-74
2022/10/02 05:54:52;;;;;;;;;;;;;;;11.98;95.76;100772.00;4896423;29;19993;-74
2022/10/02 05:58:11;;;;;;;;;;;;;;;11.99;95.49;100768.47;4897002;29;19922;-75
2022/10/02 06:01:20;;;;;;;;;;;;;;;12.03;95.58;100760.34;4883279;29;20109;-75
2022/10/02 06:04:27;;;;;;;;;;;;;;;12.04;95.90;100755.97;4889577;29;19922;-75
2022/10/02 06:07:31;;;;;;;;;;;;;;;11.94;96.65;100753.00;4883460;29;19980;-74
2022/10/02 06:10:37;;;;;;;;;;;;;;;11.98;96.66;100764.16;4877846;29;19926;-74
2022/10/02 06:13:45;;;;;;;;;;;;;;;11.85;97.54;100762.19;4878631;29;19974;-74
2022/10/02 06:16:56;;;;;;;;;;;;;;;11.93;97.91;100763.53;4878371;29;20212;-74
2022/10/02 06:19:59;;;;;;;;;;;;;;;12.06;98.00;100772.44;4888760;29;20158;-74
2022/10/02 06:23:09;;;;;;;;;;;;;;;12.13;96.96;100780.84;4896367;29;19967;-74
2022/10/02 06:26:24;;;;;;;;;;;;;;;12.17;96.82;100780.56;4896147;29;19987;-74
2022/10/02 06:29:31;;;;;;;;;;;;;;;12.16;96.95;100773.63;4892056;29;19936;-75
2022/10/02 06:32:38;;;;;;;;;;;;;;;12.10;97.86;100781.84;4878036;29;20022;-74
2022/10/02 06:36:00;;;;;;;;;;;;;;;12.19;97.41;100776.09;4877253;29;20266;-74
2022/10/02 06:39:22;;;;;;;;;;;;;;;12.23;97.66;100777.59;4895981;29;20006;-74
2022/10/02 06:42:39;;;;;;;;;;;;;;;12.29;97.74;100782.50;4897895;29;20015;-74
2022/10/02 06:45:59;;;;;;;;;;;;;;;12.32;97.91;100790.22;4910786;29;20386;-74
2022/10/02 06:49:10;;;;;;;;;;;;;;;12.33;98.19;100802.38;4920379;29;19965;-74
2022/10/02 06:52:39;;;;;;;;;;;;;;;12.39;98.01;100800.38;4923374;29;20022;-73
2022/10/02 06:55:47;;;;;;;;;;;;;;;12.44;97.65;100798.31;4922720;29;20409;-74
2022/10/02 06:58:54;;;;;;;;;;;;;;;12.44;98.07;100793.91;4572463;29;10000395;-74
2022/10/02 07:02:12;;;;;;;;;;;;;;;12.46;97.92;100801.72;4913772;29;20277;-74
2022/10/02 07:05:42;;;;;;;;;;;;;;;12.44;98.66;100801.78;4913276;29;19938;-74
2022/10/02 07:09:14;;;;;;;;;;;;;;;12.52;98.58;100804.84;4904868;29;20043;-74
2022/10/02 07:12:31;;;;;;;;;;;;;;;12.58;99.32;100806.28;4915231;29;20003;-74
2022/10/02 07:15:34;;;;;;;;;;;;;;;12.64;99.06;100803.31;4914587;29;19926;-74
2022/10/02 07:18:54;;;;;;;;;;;;;;;12.64;99.26;100808.56;4900772;29;19922;-74
2022/10/02 07:21:57;;;;;;;;;;;;;;;12.62;100.00;100804.31;4913308;29;20068;-74
2022/10/02 07:25:14;;;;;;;;;;;;;;;12.67;100.00;100810.16;4914604;29;19939;-75
2022/10/02 07:28:32;;;;;;;;;;;;;;;12.82;100.00;100813.69;4914540;29;19925;-74
2022/10/02 07:31:44;;;;;;;;;;;;;;;12.85;99.57;100813.50;4913597;29;19922;-74
2022/10/02 07:34:54;;;;;;;;;;;;;;;12.96;98.70;100821.63;4923411;29;20389;-75
2022/10/02 07:38:10;;;;;;;;;;;;;;;13.07;97.66;100813.97;4918835;29;20334;-74
2022/10/02 07:41:40;;;;;;;;;;;;;;;13.13;97.65;100816.22;4929913;29;20001;-74
2022/10/02 07:44:43;;;;;;;;;;;;;;;13.14;97.08;100819.69;4919188;29;19989;-74
2022/10/02 07:47:58;;;;;;;;;;;;;;;13.20;96.79;100814.09;4911803;29;19957;-74
2022/10/02 07:54:49;;;;;;;;;;;;;;;13.16;98.15;100826.56;4901277;29;19926;-74
2022/10/02 07:57:58;;;;;;;;;;;;;;;13.15;97.88;100832.75;4915940;29;19922;-74
2022/10/02 08:01:09;;;;;;;;;;;;;;;13.24;97.83;100834.88;4913176;29;20051;-74
2022/10/02 08:04:17;;;;;;;;;;;;;;;13.29;98.46;100836.38;4920742;29;20014;-74
2022/10/02 08:07:21;;;;;;;;;;;;;;;13.20;99.08;100838.56;4922900;29;20438;-74
2022/10/02 08:10:27;;;;;;;;;;;;;;;13.12;98.11;100848.69;4914720;29;19990;-74
2022/10/02 08:13:40;;;;;;;;;;;;;;;13.24;97.36;100829.63;4912793;29;19966;-74
2022/10/02 08:16:53;;;;;;;;;;;;;;;13.37;96.84;100827.13;4912711;29;19922;-74
2022/10/02 08:20:06;;;;;;;;;;;;;;;13.21;97.23;100835.03;4913920;29;20331;-74
2022/10/02 08:23:19;;;;;;;;;;;;;;;13.21;97.21;100837.66;4913429;29;19938;-73
2022/10/02 08:26:38;;;;;;;;;;;;;;;13.18;97.58;100837.81;4912892;29;19966;-74
2022/10/02 08:29:56;;;;;;;;;;;;;;;13.31;97.36;100847.66;4911973;29;19946;-74
2022/10/02 08:33:00;;;;;;;;;;;;;;;13.17;98.43;100854.50;4912608;29;19922;-74
2022/10/02 08:36:18;;;;;;;;;;;;;;;13.31;97.81;100852.91;4916441;29;19974;-74
2022/10/02 08:39:34;;;;;;;;;;;;;;;13.27;98.12;100854.84;4929466;29;19974;-73
2022/10/02 08:42:38;;;;;;;;;;;;;;;13.11;97.93;100852.22;4913134;29;19922;-74
2022/10/02 08:45:46;;;;;;;;;;;;;;;13.15;98.30;100853.75;4912942;29;19921;-74
2022/10/02 08:49:08;;;;;;;;;;;;;;;13.23;97.30;100851.50;4912852;29;19966;-74
2022/10/02 08:52:11;;;;;;;;;;;;;;;13.34;97.55;100853.56;4910635;29;20077;-74
2022/10/02 08:55:33;;;;;;;;;;;;;;;13.31;97.72;100845.03;4893510;29;19971;-74
2022/10/02 08:58:54;;;;;;;;;;;;;;;13.37;98.19;100842.88;4900373;29;19997;-74
2022/10/02 09:02:10;;;;;;;;;;;;;;;13.45;97.42;100834.53;4912556;29;19926;-74
2022/10/02 09:05:29;;;;;;;;;;;;;;;13.45;97.90;100845.03;4893907;29;19971;-74
2022/10/02 09:08:51;;;;;;;;;;;;;;;13.54;98.03;100851.53;4569957;29;10001484;-74
2022/10/02 09:12:10;;;;;;;;;;;;;;;13.53;98.68;100857.72;4919329;29;20355;-74
2022/10/02 09:15:17;;;;;;;;;;;;;;;13.52;98.53;100851.63;4908623;29;19926;-74
2022/10/02 09:18:39;;;;;;;;;;;;;;;13.63;97.20;100846.59;4909048;29;20017;-73
2022/10/02 09:22:12;;;;;;;;;;;;;;;13.59;96.55;100837.22;4908607;29;20414;-75
2022/10/02 09:25:16;;;;;;;;;;;;;;;13.53;97.49;100837.56;4571713;29;10000021;-74
2022/10/02 09:28:48;;;;;;;;;;;;;;;13.59;95.90;100847.72;4909124;29;19930;-74
2022/10/02 09:32:10;;;;;;;;;;;;;;;13.49;95.07;100841.28;4897627;29;19922;-74
2022/10/02 09:35:25;;;;;;;;;;;;;;;13.57;95.55;100838.22;4912181;29;19970;-74
2022/10/02 09:38:29;;;;;;;;;;;;;;;13.56;95.30;100842.66;4896864;29;19971;-75
2022/10/02 09:41:43;;;;;;;;;;;;;;;13.63;95.49;100838.69;4892906;29;20008;-74
2022/10/02 09:44:46;;;;;;;;;;;;;;;13.59;95.06;100837.22;4896222;29;19921;-74
2022/10/02 09:48:09;;;;;;;;;;;;;;;13.53;95.47;100832.31;4911477;29;19926;-74
2022/10/02 09:51:40;;;;;;;;;;;;;;;13.68;94.77;100836.63;4912062;29;19937;-74
2022/10/02 09:54:43;;;;;;;;;;;;;;;13.59;93.85;100839.84;4893292;29;19967;-74
2022/10/02 09:57:50;;;;;;;;;;;;;;;13.57;94.07;100836.44;4906990;29;20291;-74
2022/10/02 10:01:00;;;;;;;;;;;;;;;13.68;94.21;100834.00;4903020;29;19954;-74
2022/10/02 10:04:07;;;;;;;;;;;;;;;13.66;93.99;100837.69;4913700;29;20096;-74
2022/10/02 10:07:34;;;;;;;;;;;;;;;13.71;93.46;100841.69;4916274;29;19951;-75
2022/10/02 10:10:55;;;;;;;;;;;;;;;13.62;94.09;100834.38;4914570;29;19926;-74
2022/10/02 10:14:08;;;;;;;;;;;;;;;13.60;94.86;100828.38;4894546;29;20050;-74
2022/10/02 10:17:38;;;;;;;;;;;;;;;13.68;94.14;100838.41;4896356;29;19922;-74
2022/10/02 10:20:59;;;;;;;;;;;;;;;14.02;92.20;100834.59;4891052;29;19937;-74
2022/10/02 10:24:13;;;;;;;;;;;;;;;14.09;90.78;100848.19;4895719;29;19975;-74
2022/10/02 10:27:29;;;;;;;;;;;;;;;14.00;91.79;100848.75;4896520;29;20283;-74
2022/10/02 10:30:51;;;;;;;;;;;;;;;13.95;92.09;100847.25;4905855;29;19922;-74
2022/10/02 10:34:12;;;;;;;;;;;;;;;14.16;91.38;100852.13;4918623;29;20343;-74
2022/10/02 10:41:18;;;;;;;;;;;;;;;14.08;90.97;100863.13;4938511;29;20021;-74
2022/10/02 10:44:40;;;;;;;;;;;;;;;14.04;91.39;100868.66;4916742;29;19922;-74
2022/10/02 10:48:11;;;;;;;;;;;;;;;13.99;90.99;100871.56;4897425;29;19930;-74
2022/10/02 10:51:15;;;;;;;;;;;;;;;14.01;91.14;100877.59;4896394;29;19990;-75
2022/10/02 10:54:22;;;;;;;;;;;;;;;14.01;89.75;100874.09;4914788;29;19922;-75
2022/10/02 10:57:32;;;;;;;;;;;;;;;14.13;90.15;100876.81;4915250;29;19921;-74
2022/10/02 11:00:35;;;;;;;;;;;;;;;13.97;90.70;100878.69;4890232;29;19921;-74
2022/10/02 11:03:59;;;;;;;;;;;;;;;14.09;91.32;100882.38;4914648;29;19923;-74
2022/10/02 11:07:14;;;;;;;;;;;;;;;14.09;90.78;100888.47;4915515;29;19970;-75
2022/10/02 11:10:36;;;;;;;;;;;;;;;14.05;91.06;100884.34;4916055;29;19986;-74
2022/10/02 11:13:42;;;;;;;;;;;;;;;14.16;90.87;100892.41;4914168;29;20290;-74
2022/10/02 11:17:04;;;;;;;;;;;;;;;14.23;90.85;100894.66;4914735;29;19928;-75
2022/10/02 11:20:22;;;;;;;;;;;;;;;14.12;89.45;100896.19;4914818;29;19922;-75
2022/10/02 11:23:35;;;;;;;;;;;;;;;14.10;90.24;100890.19;4903451;29;19925;-75
2022/10/02 11:26:54;;;;;;;;;;;;;;;14.31;89.76;100881.91;4915957;29;19922;-74
2022/10/02 11:30:12;;;;;;;;;;;;;;;14.29;87.66;100886.41;4915866;29;20058;-74
2022/10/02 11:33:35;;;;;;;;;;;;;;;14.48;87.88;100891.38;4918633;29;19922;-74
2022/10/02 11:36:52;;;;;;;;;;;;;;;14.55;86.07;100876.91;4917121;29;19926;-74
2022/10/02 11:40:12;;;;;;;;;;;;;;;14.49;86.97;100886.03;4917678;29;19922;-74
2022/10/02 11:43:43;;;;;;;;;;;;;;;14.45;87.77;100895.03;4916901;29;20243;-74
2022/10/02 11:47:06;;;;;;;;;;;;;;;14.35;88.09;100896.53;4916447;29;20018;-74
2022/10/02 11:50:12;;;;;;;;;;;;;;;14.28;87.78;100895.25;4894912;29;20442;-74
2022/10/02 11:53:21;;;;;;;;;;;;;;;14.32;88.19;100900.22;4917328;29;19922;-74
2022/10/02 11:56:37;;;;;;;;;;;;;;;14.45;87.27;100889.75;4917540;29;19957;-74
2022/10/02 11:59:49;;;;;;;;;;;;;;;14.54;87.13;100898.91;4917573;29;19921;-74
2022/10/02 12:03:11;;;;;;;;;;;;;;;14.56;86.80;100897.88;4917681;29;19989;-74
2022/10/02 12:06:32;;;;;;;;;;;;;;;14.54;87.00;100894.47;4906360;29;19922;-74
2022/10/02 12:09:38;;;;;;;;;;;;;;;14.42;86.82;100889.94;4917094;29;19974;-74
2022/10/02 12:13:00;;;;;;;;;;;;;;;14.52;87.11;100896.38;4917504;29;19965;-74
2022/10/02 12:16:19;;;;;;;;;;;;;;;14.42;86.96;100895.22;4917167;29;19922;-74
2022/10/02 12:19:25;;;;;;;;;;;;;;;14.47;87.21;100884.41;4917614;29;20016;-75
2022/10/02 12:29:40;;;;;;;;;;;;;;;14.24;89.30;100885.88;4917047;29;19965;-75
2022/10/02 12:32:49;;;;;;;;;;;;;;;14.49;88.82;100893.91;4917296;29;19974;-76
2022/10/02 12:35:53;;;;;;;;;;;;;;;14.57;88.17;100888.19;4916553;29;20054;-76
2022/10/02 12:39:14;;;;;;;;;;;;;;;14.52;87.91;100893.75;4916866;29;19994;-75
2022/10/02 12:42:52;;;;;;;;;;;;;;;14.54;88.06;100891.00;4915154;29;19943;-76
2022/10/02 12:46:11;;;;;;;;;;;;;;;14.56;87.85;100882.09;4899746;29;19963;-76
2022/10/02 12:49:18;;;;;;;;;;;;;;;14.59;87.79;100881.91;4916575;29;19926;-75
2022/10/02 12:52:37;;;;;;;;;;;;;;;14.68;87.30;100879.59;4916977;29;20327;-76
2022/10/02 12:55:47;;;;;;;;;;;;;;;14.45;87.27;100897.66;4916579;29;19986;-76
2022/10/02 12:58:54;;;;;;;;;;;;;;;14.46;86.83;100894.09;4916410;29;19922;-76
2022/10/02 13:02:16;;;;;;;;;;;;;;;14.50;87.59;100897.38;4916026;29;19930;-76
2022/10/02 13:05:34;;;;;;;;;;;;;;;14.56;86.92;100908.41;4904879;29;19922;-75
2022/10/02 13:08:45;;;;;;;;;;;;;;;14.53;87.38;100903.34;4916386;29;19926;-76
2022/10/02 13:11:49;;;;;;;;;;;;;;;14.61;87.23;100901.06;4904982;29;19970;-76
2022/10/02 13:14:58;;;;;;;;;;;;;;;14.59;87.27;100905.56;4916458;29;19971;-76
2022/10/02 13:18:04;;;;;;;;;;;;;;;14.67;87.23;100909.50;4917189;29;19930;-75
2022/10/02 13:21:25;;;;;;;;;;;;;;;14.65;87.18;100901.72;4917364;29;20362;-75
2022/10/02 13:24:46;;;;;;;;;;;;;;;14.55;87.11;100911.97;4926523;29;20315;-75
2022/10/02 13:27:58;;;;;;;;;;;;;;;14.63;87.45;100914.97;4916774;29;19930;-76
2022/10/02 13:31:10;;;;;;;;;;;;;;;14.67;86.25;100909.50;4916985;29;20034;-75
2022/10/02 13:34:32;;;;;;;;;;;;;;;14.89;86.44;100920.34;4916689;29;20335;-75
2022/10/02 13:37:47;;;;;;;;;;;;;;;14.99;85.66;100905.66;4916028;29;19930;-75
2022/10/02 13:40:53;;;;;;;;;;;;;;;15.09;84.59;100906.78;4916639;29;20226;-75
2022/10/02 13:44:06;;;;;;;;;;;;;;;15.18;82.76;100907.09;4916573;29;20041;-75
2022/10/02 13:47:26;;;;;;;;;;;;;;;15.25;82.15;100898.72;4916058;29;19926;-76
2022/10/02 13:51:07;;;;;;;;;;;;;;;15.06;81.08;100901.69;4914579;29;19992;-75
2022/10/02 13:54:16;;;;;;;;;;;;;;;15.14;82.03;100906.44;4856468;29;19970;-74
2022/10/02 13:57:38;;;;;;;;;;;;;;;14.93;82.89;100899.94;4856053;29;19923;-74
2022/10/02 14:01:03;;;;;;;;;;;;;;;15.01;82.78;100909.03;4915155;29;19962;-75
2022/10/02 14:04:09;;;;;;;;;;;;;;;15.07;83.21;100907.81;4915161;29;19922;-74
2022/10/02 14:07:18;;;;;;;;;;;;;;;15.03;82.53;100906.31;4917889;29;19921;-74
2022/10/02 14:10:21;;;;;;;;;;;;;;;15.10;82.70;100908.44;4919283;29;19925;-74
2022/10/02 14:13:28;;;;;;;;;;;;;;;15.10;83.26;100916.34;4919368;29;19953;-74
2022/10/02 14:16:40;;;;;;;;;;;;;;;15.11;83.30;100904.84;4919113;29;19970;-74
2022/10/02 14:19:51;;;;;;;;;;;;;;;15.17;82.73;100916.78;4919047;29;19925;-74
2022/10/02 14:23:00;;;;;;;;;;;;;;;14.99;82.58;100918.81;4919171;29;19922;-74
2022/10/02 14:26:19;;;;;;;;;;;;;;;15.06;83.56;100919.25;4919375;29;19974;-74
2022/10/02 14:29:23;;;;;;;;;;;;;;;14.95;82.01;100919.97;4919177;29;19930;-74
2022/10/02 14:32:30;;;;;;;;;;;;;;;14.85;81.63;100917.09;4918309;29;20038;-74
2022/10/02 14:35:41;;;;;;;;;;;;;;;14.88;82.69;100929.22;4919191;29;19978;-74
2022/10/02 14:39:04;;;;;;;;;;;;;;;14.86;82.39;100931.94;4900203;29;19926;-74
2022/10/02 14:42:15;;;;;;;;;;;;;;;14.80;83.86;100936.72;4900104;29;19922;-74
2022/10/02 14:45:38;;;;;;;;;;;;;;;14.89;84.10;100933.53;4900054;29;19938;-74
2022/10/02 14:48:55;;;;;;;;;;;;;;;14.89;84.17;100936.16;4900585;29;19974;-74
2022/10/02 14:52:13;;;;;;;;;;;;;;;14.85;83.53;100934.66;4901461;29;19938;-75
2022/10/02 14:55:32;;;;;;;;;;;;;;;14.76;82.53;100937.88;4900459;29;20036;-74
2022/10/02 14:58:42;;;;;;;;;;;;;;;14.67;82.96;100947.19;4900398;29;19921;-74
2022/10/02 15:02:13;;;;;;;;;;;;;;;14.77;83.49;100952.72;4894229;29;19927;-74
2022/10/02 15:05:32;;;;;;;;;;;;;;;14.68;83.75;100955.94;4881359;29;20279;-74
2022/10/02 15:08:39;;;;;;;;;;;;;;;14.67;82.62;100951.63;4868831;29;19974;-74
2022/10/02 15:11:42;;;;;;;;;;;;;;;14.68;82.82;100950.66;4880882;29;19922;-74
2022/10/02 15:15:04;;;;;;;;;;;;;;;14.73;83.43;100945.97;4881133;29;19971;-75
2022/10/02 15:18:25;;;;;;;;;;;;;;;14.79;84.86;100940.31;4880414;29;20395;-74
2022/10/02 15:21:28;;;;;;;;;;;;;;;14.54;82.63;100946.28;4880873;29;19972;-74
2022/10/02 15:24:38;;;;;;;;;;;;;;;14.59;84.24;100945.06;4880741;29;19998;-74
2022/10/02 15:27:51;;;;;;;;;;;;;;;14.61;84.69;100948.44;4888966;29;19971;-74
2022/10/02 15:31:00;;;;;;;;;;;;;;;14.54;85.00;100956.78;4897530;29;20355;-74
2022/10/02 15:34:17;;;;;;;;;;;;;;;14.55;84.50;100958.47;4897873;29;19922;-74
2022/10/02 15:37:40;;;;;;;;;;;;;;;14.56;85.21;100960.19;4923192;29;19969;-74
2022/10/02 15:40:53;;;;;;;;;;;;;;;14.63;84.74;100958.84;4923465;29;20322;-74
2022/10/02 15:43:57;;;;;;;;;;;;;;;14.56;85.03;100963.66;4917835;29;20422;-74
2022/10/02 15:47:08;;;;;;;;;;;;;;;14.44;84.58;100961.75;4917940;29;19922;-74
2022/10/02 15:50:18;;;;;;;;;;;;;;;14.40;85.14;100969.00;4917998;29;20042;-74
2022/10/02 15:53:21;;;;;;;;;;;;;;;14.38;85.48;100964.75;4917792;29;20227;-74
2022/10/02 15:56:37;;;;;;;;;;;;;;;14.37;85.36;100969.19;4917418;29;20394;-74
2022/10/02 15:59:50;;;;;;;;;;;;;;;14.43;85.64;100975.84;4917401;29;19925;-74
2022/10/02 16:02:57;;;;;;;;;;;;;;;14.43;87.08;100978.47;4917386;29;19925;-74
2022/10/02 16:06:09;;;;;;;;;;;;;;;14.48;88.38;100986.94;4917482;29;19938;-74
2022/10/02 16:09:17;;;;;;;;;;;;;;;14.50;88.86;100990.31;4894982;29;20466;-74
2022/10/02 16:12:46;;;;;;;;;;;;;;;14.41;88.67;100989.09;4918238;29;19957;-74
2022/10/02 16:16:17;;;;;;;;;;;;;;;14.30;89.48;101002.06;4918215;29;19922;-74
2022/10/02 16:19:39;;;;;;;;;;;;;;;14.22;91.09;100999.03;4918096;29;19921;-74
2022/10/02 16:23:02;;;;;;;;;;;;;;;14.23;91.40;101005.13;4918245;29;19922;-75
2022/10/02 16:26:13;;;;;;;;;;;;;;;14.17;91.46;101001.94;4918165;29;19922;-75
2022/10/02 16:29:17;;;;;;;;;;;;;;;14.14;91.57;101012.66;4916995;29;20025;-74
2022/10/02 16:32:35;;;;;;;;;;;;;;;14.19;91.07;101005.31;4905485;29;20378;-74
2022/10/02 16:35:47;;;;;;;;;;;;;;;14.00;91.83;101009.97;4922298;29;19922;-74
2022/10/02 16:39:01;;;;;;;;;;;;;;;14.04;91.66;101011.50;4917575;29;19941;-74
2022/10/02 16:42:27;;;;;;;;;;;;;;;13.89;91.74;101018.50;4917107;29;19973;-74
2022/10/02 16:45:31;;;;;;;;;;;;;;;13.81;92.49;101025.13;4916654;29;19921;-74
2022/10/02 16:48:59;;;;;;;;;;;;;;;13.72;92.23;101027.38;4916644;29;19926;-74
2022/10/02 16:52:07;;;;;;;;;;;;;;;13.77;91.95;101042.03;4904952;29;19922;-74
2022/10/02 16:55:14;;;;;;;;;;;;;;;13.65;91.98;101036.50;4917237;29;20359;-75